sensor_id;sensor_type;location;lat;lon;timestamp;P1;durP1;ratioP1;P2;durP2;ratioP2
62102;SDS011;48077;48.104;11.702;2024-01-16T00:02:05;5.43;;;3.40;;
62102;SDS011;48077;48.104;11.702;2024-01-16T00:04:35;5.28;;;4.82;;
62102;SDS011;48077;48.104;11.702;2024-01-16T00:07:04;2.72;;;2.38;;
62102;SDS011;48077;48.104;11.702;2024-01-16T00:09:33;3.70;;;2.95;;
62102;SDS011;48077;48.104;11.702;2024-01-16T00:12:02;3.90;;;3.50;;
62102;SDS011;48077;48.104;11.702;2024-01-16T00:14:30;7.82;;;7.32;;
62102;SDS011;48077;48.104;11.702;2024-01-16T00:16:58;3.45;;;3.13;;
62102;SDS011;48077;48.104;11.702;2024-01-16T00:19:25;4.80;;;3.53;;
62102;SDS011;48077;48.104;11.702;2024-01-16T00:21:53;3.33;;;2.88;;
62102;SDS011;48077;48.104;11.702;2024-01-16T00:24:21;4.65;;;2.97;;
62102;SDS011;48077;48.104;11.702;2024-01-16T00:26:50;3.83;;;3.13;;
62102;SDS011;48077;48.104;11.702;2024-01-16T00:29:18;4.20;;;3.90;;
62102;SDS011;48077;48.104;11.702;2024-01-16T00:31:46;3.72;;;3.03;;
62102;SDS011;48077;48.104;11.702;2024-01-16T00:34:14;4.45;;;3.55;;
62102;SDS011;48077;48.104;11.702;2024-01-16T00:36:42;3.22;;;3.03;;
62102;SDS011;48077;48.104;11.702;2024-01-16T00:39:10;3.83;;;3.03;;
62102;SDS011;48077;48.104;11.702;2024-01-16T00:41:37;3.22;;;2.90;;
62102;SDS011;48077;48.104;11.702;2024-01-16T00:44:06;5.10;;;3.30;;
62102;SDS011;48077;48.104;11.702;2024-01-16T00:46:35;5.03;;;2.78;;
62102;SDS011;48077;48.104;11.702;2024-01-16T00:49:02;4.38;;;2.70;;
62102;SDS011;48077;48.104;11.702;2024-01-16T00:51:30;4.45;;;3.97;;
62102;SDS011;48077;48.104;11.702;2024-01-16T00:53:58;5.63;;;3.85;;
62102;SDS011;48077;48.104;11.702;2024-01-16T00:56:26;3.40;;;3.13;;
62102;SDS011;48077;48.104;11.702;2024-01-16T00:58:54;3.25;;;2.72;;
62102;SDS011;48077;48.104;11.702;2024-01-16T01:01:23;4.97;;;3.55;;
62102;SDS011;48077;48.104;11.702;2024-01-16T01:07:36;3.58;;;3.35;;
62102;SDS011;48077;48.104;11.702;2024-01-16T01:10:04;3.10;;;2.88;;
62102;SDS011;48077;48.104;11.702;2024-01-16T01:12:32;4.30;;;4.07;;
62102;SDS011;48077;48.104;11.702;2024-01-16T01:15:00;4.05;;;3.65;;
62102;SDS011;48077;48.104;11.702;2024-01-16T01:17:28;3.55;;;3.20;;
62102;SDS011;48077;48.104;11.702;2024-01-16T01:19:56;3.13;;;2.83;;
62102;SDS011;48077;48.104;11.702;2024-01-16T01:22:24;5.03;;;4.13;;
62102;SDS011;48077;48.104;11.702;2024-01-16T01:24:53;3.53;;;3.30;;
62102;SDS011;48077;48.104;11.702;2024-01-16T01:27:21;4.88;;;3.60;;
62102;SDS011;48077;48.104;11.702;2024-01-16T01:29:48;4.65;;;4.35;;
62102;SDS011;48077;48.104;11.702;2024-01-16T01:32:16;4.18;;;3.92;;
62102;SDS011;48077;48.104;11.702;2024-01-16T01:34:44;3.20;;;3.00;;
62102;SDS011;48077;48.104;11.702;2024-01-16T01:37:12;3.10;;;2.83;;
62102;SDS011;48077;48.104;11.702;2024-01-16T01:39:40;3.08;;;2.35;;
62102;SDS011;48077;48.104;11.702;2024-01-16T01:42:09;4.00;;;3.30;;
62102;SDS011;48077;48.104;11.702;2024-01-16T01:44:37;4.20;;;4.00;;
62102;SDS011;48077;48.104;11.702;2024-01-16T01:47:05;3.38;;;3.17;;
62102;SDS011;48077;48.104;11.702;2024-01-16T01:49:32;3.28;;;3.08;;
62102;SDS011;48077;48.104;11.702;2024-01-16T01:52:01;3.63;;;3.42;;
62102;SDS011;48077;48.104;11.702;2024-01-16T01:54:29;4.57;;;4.20;;
62102;SDS011;48077;48.104;11.702;2024-01-16T01:56:59;3.45;;;3.25;;
62102;SDS011;48077;48.104;11.702;2024-01-16T01:59:29;3.55;;;3.13;;
62102;SDS011;48077;48.104;11.702;2024-01-16T02:01:59;3.30;;;2.97;;
62102;SDS011;48077;48.104;11.702;2024-01-16T02:06:55;2.83;;;2.72;;
62102;SDS011;48077;48.104;11.702;2024-01-16T02:09:23;3.42;;;3.13;;
62102;SDS011;48077;48.104;11.702;2024-01-16T02:11:51;4.60;;;4.15;;
62102;SDS011;48077;48.104;11.702;2024-01-16T02:14:19;4.22;;;3.97;;
62102;SDS011;48077;48.104;11.702;2024-01-16T02:16:48;5.00;;;4.70;;
62102;SDS011;48077;48.104;11.702;2024-01-16T02:19:16;3.67;;;3.35;;
62102;SDS011;48077;48.104;11.702;2024-01-16T02:21:47;4.88;;;4.57;;
62102;SDS011;48077;48.104;11.702;2024-01-16T02:24:18;3.40;;;3.13;;
62102;SDS011;48077;48.104;11.702;2024-01-16T02:26:46;4.18;;;3.88;;
62102;SDS011;48077;48.104;11.702;2024-01-16T02:29:14;4.75;;;4.35;;
62102;SDS011;48077;48.104;11.702;2024-01-16T02:31:42;3.40;;;3.17;;
62102;SDS011;48077;48.104;11.702;2024-01-16T02:34:10;4.97;;;4.68;;
62102;SDS011;48077;48.104;11.702;2024-01-16T02:36:38;5.03;;;4.65;;
62102;SDS011;48077;48.104;11.702;2024-01-16T02:39:06;4.30;;;4.00;;
62102;SDS011;48077;48.104;11.702;2024-01-16T02:41:35;2.83;;;2.42;;
62102;SDS011;48077;48.104;11.702;2024-01-16T02:44:03;6.63;;;4.75;;
62102;SDS011;48077;48.104;11.702;2024-01-16T02:46:31;6.07;;;5.72;;
62102;SDS011;48077;48.104;11.702;2024-01-16T02:49:00;3.85;;;3.60;;
62102;SDS011;48077;48.104;11.702;2024-01-16T02:51:28;4.55;;;4.18;;
62102;SDS011;48077;48.104;11.702;2024-01-16T02:53:55;4.70;;;4.07;;
62102;SDS011;48077;48.104;11.702;2024-01-16T02:56:23;3.45;;;3.25;;
62102;SDS011;48077;48.104;11.702;2024-01-16T02:58:52;3.17;;;2.97;;
62102;SDS011;48077;48.104;11.702;2024-01-16T03:01:20;3.08;;;2.78;;
62102;SDS011;48077;48.104;11.702;2024-01-16T03:03:48;4.55;;;4.15;;
62102;SDS011;48077;48.104;11.702;2024-01-16T03:08:51;3.33;;;3.08;;
62102;SDS011;48077;48.104;11.702;2024-01-16T03:13:46;3.55;;;3.35;;
62102;SDS011;48077;48.104;11.702;2024-01-16T03:16:17;3.53;;;3.10;;
62102;SDS011;48077;48.104;11.702;2024-01-16T03:18:45;2.08;;;1.52;;
62102;SDS011;48077;48.104;11.702;2024-01-16T03:21:13;3.03;;;2.83;;
62102;SDS011;48077;48.104;11.702;2024-01-16T03:23:41;3.30;;;3.10;;
62102;SDS011;48077;48.104;11.702;2024-01-16T03:26:11;3.47;;;3.22;;
62102;SDS011;48077;48.104;11.702;2024-01-16T03:28:40;4.50;;;4.10;;
62102;SDS011;48077;48.104;11.702;2024-01-16T03:31:08;3.25;;;2.72;;
62102;SDS011;48077;48.104;11.702;2024-01-16T03:33:37;4.07;;;3.75;;
62102;SDS011;48077;48.104;11.702;2024-01-16T03:36:09;3.25;;;3.03;;
62102;SDS011;48077;48.104;11.702;2024-01-16T03:38:38;3.10;;;2.90;;
62102;SDS011;48077;48.104;11.702;2024-01-16T03:41:07;6.60;;;3.70;;
62102;SDS011;48077;48.104;11.702;2024-01-16T03:43:34;3.75;;;3.45;;
62102;SDS011;48077;48.104;11.702;2024-01-16T03:46:02;6.55;;;4.07;;
62102;SDS011;48077;48.104;11.702;2024-01-16T03:48:30;3.85;;;3.65;;
62102;SDS011;48077;48.104;11.702;2024-01-16T03:50:59;4.15;;;3.88;;
62102;SDS011;48077;48.104;11.702;2024-01-16T03:53:28;3.03;;;2.78;;
62102;SDS011;48077;48.104;11.702;2024-01-16T03:55:56;3.92;;;2.63;;
62102;SDS011;48077;48.104;11.702;2024-01-16T03:58:24;5.15;;;4.85;;
62102;SDS011;48077;48.104;11.702;2024-01-16T04:00:52;4.72;;;3.30;;
62102;SDS011;48077;48.104;11.702;2024-01-16T04:03:20;3.78;;;3.47;;
62102;SDS011;48077;48.104;11.702;2024-01-16T04:05:47;4.70;;;4.25;;
62102;SDS011;48077;48.104;11.702;2024-01-16T04:08:17;4.70;;;4.28;;
62102;SDS011;48077;48.104;11.702;2024-01-16T04:10:44;4.00;;;3.75;;
62102;SDS011;48077;48.104;11.702;2024-01-16T04:13:12;3.58;;;3.28;;
62102;SDS011;48077;48.104;11.702;2024-01-16T04:15:40;5.90;;;5.22;;
62102;SDS011;48077;48.104;11.702;2024-01-16T04:18:08;3.50;;;3.08;;
62102;SDS011;48077;48.104;11.702;2024-01-16T04:20:36;3.67;;;3.38;;
62102;SDS011;48077;48.104;11.702;2024-01-16T04:23:04;3.58;;;3.28;;
62102;SDS011;48077;48.104;11.702;2024-01-16T04:25:33;4.85;;;4.45;;
62102;SDS011;48077;48.104;11.702;2024-01-16T04:28:00;5.82;;;4.03;;
62102;SDS011;48077;48.104;11.702;2024-01-16T04:30:28;3.90;;;3.60;;
62102;SDS011;48077;48.104;11.702;2024-01-16T04:32:56;3.83;;;3.50;;
62102;SDS011;48077;48.104;11.702;2024-01-16T04:35:24;5.82;;;3.83;;
62102;SDS011;48077;48.104;11.702;2024-01-16T04:37:52;4.32;;;3.60;;
62102;SDS011;48077;48.104;11.702;2024-01-16T04:40:20;3.67;;;3.38;;
62102;SDS011;48077;48.104;11.702;2024-01-16T04:42:49;4.47;;;3.65;;
62102;SDS011;48077;48.104;11.702;2024-01-16T04:45:17;4.20;;;3.90;;
62102;SDS011;48077;48.104;11.702;2024-01-16T04:47:45;3.75;;;3.47;;
62102;SDS011;48077;48.104;11.702;2024-01-16T04:50:12;4.60;;;4.30;;
62102;SDS011;48077;48.104;11.702;2024-01-16T04:52:40;4.72;;;4.15;;
62102;SDS011;48077;48.104;11.702;2024-01-16T04:55:11;4.90;;;3.95;;
62102;SDS011;48077;48.104;11.702;2024-01-16T04:57:38;3.00;;;2.80;;
62102;SDS011;48077;48.104;11.702;2024-01-16T05:00:08;4.10;;;3.80;;
62102;SDS011;48077;48.104;11.702;2024-01-16T05:02:37;3.83;;;3.53;;
62102;SDS011;48077;48.104;11.702;2024-01-16T05:05:05;6.95;;;3.05;;
62102;SDS011;48077;48.104;11.702;2024-01-16T05:10:02;3.63;;;3.33;;
62102;SDS011;48077;48.104;11.702;2024-01-16T05:12:29;5.18;;;4.88;;
62102;SDS011;48077;48.104;11.702;2024-01-16T05:14:57;3.63;;;3.42;;
62102;SDS011;48077;48.104;11.702;2024-01-16T05:17:26;4.15;;;3.85;;
62102;SDS011;48077;48.104;11.702;2024-01-16T05:19:54;3.47;;;2.65;;
62102;SDS011;48077;48.104;11.702;2024-01-16T05:22:23;3.70;;;3.50;;
62102;SDS011;48077;48.104;11.702;2024-01-16T05:24:51;5.50;;;3.70;;
62102;SDS011;48077;48.104;11.702;2024-01-16T05:27:20;5.10;;;3.67;;
62102;SDS011;48077;48.104;11.702;2024-01-16T05:29:47;3.83;;;3.28;;
62102;SDS011;48077;48.104;11.702;2024-01-16T05:32:15;5.40;;;5.00;;
62102;SDS011;48077;48.104;11.702;2024-01-16T05:34:44;4.30;;;3.95;;
62102;SDS011;48077;48.104;11.702;2024-01-16T05:37:12;4.45;;;4.05;;
62102;SDS011;48077;48.104;11.702;2024-01-16T05:39:40;4.47;;;4.18;;
62102;SDS011;48077;48.104;11.702;2024-01-16T05:42:08;3.95;;;3.08;;
62102;SDS011;48077;48.104;11.702;2024-01-16T05:44:37;4.18;;;3.88;;
62102;SDS011;48077;48.104;11.702;2024-01-16T05:47:05;4.45;;;3.58;;
62102;SDS011;48077;48.104;11.702;2024-01-16T05:49:33;4.75;;;4.28;;
62102;SDS011;48077;48.104;11.702;2024-01-16T05:52:02;3.80;;;3.50;;
62102;SDS011;48077;48.104;11.702;2024-01-16T05:54:30;4.70;;;3.22;;
62102;SDS011;48077;48.104;11.702;2024-01-16T05:56:57;4.70;;;4.30;;
62102;SDS011;48077;48.104;11.702;2024-01-16T05:59:25;4.15;;;3.95;;
62102;SDS011;48077;48.104;11.702;2024-01-16T06:01:53;6.22;;;4.50;;
62102;SDS011;48077;48.104;11.702;2024-01-16T06:04:21;4.80;;;3.58;;
62102;SDS011;48077;48.104;11.702;2024-01-16T06:06:49;4.28;;;3.88;;
62102;SDS011;48077;48.104;11.702;2024-01-16T06:09:18;4.53;;;3.92;;
62102;SDS011;48077;48.104;11.702;2024-01-16T06:11:45;5.05;;;3.72;;
62102;SDS011;48077;48.104;11.702;2024-01-16T06:14:14;2.55;;;2.42;;
62102;SDS011;48077;48.104;11.702;2024-01-16T06:16:47;3.72;;;3.42;;
62102;SDS011;48077;48.104;11.702;2024-01-16T06:19:15;5.85;;;5.25;;
62102;SDS011;48077;48.104;11.702;2024-01-16T06:21:43;3.78;;;3.25;;
62102;SDS011;48077;48.104;11.702;2024-01-16T06:24:11;3.65;;;3.38;;
62102;SDS011;48077;48.104;11.702;2024-01-16T06:26:41;5.00;;;4.60;;
62102;SDS011;48077;48.104;11.702;2024-01-16T06:29:09;4.28;;;3.88;;
62102;SDS011;48077;48.104;11.702;2024-01-16T06:31:50;6.65;;;4.38;;
62102;SDS011;48077;48.104;11.702;2024-01-16T06:34:17;10.55;;;6.13;;
62102;SDS011;48077;48.104;11.702;2024-01-16T06:39:13;8.73;;;5.15;;
62102;SDS011;48077;48.104;11.702;2024-01-16T06:41:42;4.72;;;4.32;;
62102;SDS011;48077;48.104;11.702;2024-01-16T06:44:10;5.95;;;5.55;;
62102;SDS011;48077;48.104;11.702;2024-01-16T06:46:38;6.30;;;5.65;;
62102;SDS011;48077;48.104;11.702;2024-01-16T06:49:06;4.10;;;3.78;;
62102;SDS011;48077;48.104;11.702;2024-01-16T06:51:34;4.95;;;4.05;;
62102;SDS011;48077;48.104;11.702;2024-01-16T06:54:01;5.75;;;5.00;;
62102;SDS011;48077;48.104;11.702;2024-01-16T06:56:29;6.60;;;4.75;;
62102;SDS011;48077;48.104;11.702;2024-01-16T06:58:59;9.95;;;4.97;;
62102;SDS011;48077;48.104;11.702;2024-01-16T07:01:26;8.02;;;5.35;;
62102;SDS011;48077;48.104;11.702;2024-01-16T07:03:54;9.30;;;5.70;;
62102;SDS011;48077;48.104;11.702;2024-01-16T07:06:22;7.88;;;5.95;;
62102;SDS011;48077;48.104;11.702;2024-01-16T07:08:49;17.23;;;8.45;;
62102;SDS011;48077;48.104;11.702;2024-01-16T07:11:17;16.30;;;9.18;;
62102;SDS011;48077;48.104;11.702;2024-01-16T07:16:14;13.52;;;8.00;;
62102;SDS011;48077;48.104;11.702;2024-01-16T07:18:42;7.90;;;5.72;;
62102;SDS011;48077;48.104;11.702;2024-01-16T07:21:16;9.02;;;5.65;;
62102;SDS011;48077;48.104;11.702;2024-01-16T07:23:44;7.00;;;5.30;;
62102;SDS011;48077;48.104;11.702;2024-01-16T07:28:40;8.60;;;4.32;;
62102;SDS011;48077;48.104;11.702;2024-01-16T07:31:08;5.97;;;3.88;;
62102;SDS011;48077;48.104;11.702;2024-01-16T07:33:39;5.28;;;4.10;;
62102;SDS011;48077;48.104;11.702;2024-01-16T07:36:07;4.60;;;4.20;;
62102;SDS011;48077;48.104;11.702;2024-01-16T07:38:35;5.32;;;4.70;;
62102;SDS011;48077;48.104;11.702;2024-01-16T07:41:04;5.18;;;4.63;;
62102;SDS011;48077;48.104;11.702;2024-01-16T07:43:32;4.68;;;4.15;;
62102;SDS011;48077;48.104;11.702;2024-01-16T07:46:01;7.57;;;5.10;;
62102;SDS011;48077;48.104;11.702;2024-01-16T07:48:29;6.30;;;5.72;;
62102;SDS011;48077;48.104;11.702;2024-01-16T07:50:58;6.20;;;3.85;;
62102;SDS011;48077;48.104;11.702;2024-01-16T07:53:26;4.28;;;3.97;;
62102;SDS011;48077;48.104;11.702;2024-01-16T07:55:54;5.20;;;3.40;;
62102;SDS011;48077;48.104;11.702;2024-01-16T07:58:22;6.55;;;5.30;;
62102;SDS011;48077;48.104;11.702;2024-01-16T08:00:50;5.13;;;4.70;;
62102;SDS011;48077;48.104;11.702;2024-01-16T08:03:18;4.05;;;3.65;;
62102;SDS011;48077;48.104;11.702;2024-01-16T08:05:46;7.75;;;4.30;;
62102;SDS011;48077;48.104;11.702;2024-01-16T08:08:15;5.28;;;3.80;;
62102;SDS011;48077;48.104;11.702;2024-01-16T08:10:42;6.80;;;5.72;;
62102;SDS011;48077;48.104;11.702;2024-01-16T08:13:10;6.53;;;4.05;;
62102;SDS011;48077;48.104;11.702;2024-01-16T08:15:38;5.72;;;4.47;;
62102;SDS011;48077;48.104;11.702;2024-01-16T08:18:06;5.32;;;4.82;;
62102;SDS011;48077;48.104;11.702;2024-01-16T08:20:34;7.53;;;4.97;;
62102;SDS011;48077;48.104;11.702;2024-01-16T08:23:01;5.68;;;3.72;;
62102;SDS011;48077;48.104;11.702;2024-01-16T08:25:31;5.90;;;5.05;;
62102;SDS011;48077;48.104;11.702;2024-01-16T08:27:59;6.50;;;4.47;;
62102;SDS011;48077;48.104;11.702;2024-01-16T08:32:54;5.20;;;3.70;;
62102;SDS011;48077;48.104;11.702;2024-01-16T08:35:22;5.60;;;5.13;;
62102;SDS011;48077;48.104;11.702;2024-01-16T08:37:50;7.82;;;5.63;;
62102;SDS011;48077;48.104;11.702;2024-01-16T08:40:18;11.60;;;5.85;;
62102;SDS011;48077;48.104;11.702;2024-01-16T08:42:47;7.65;;;4.95;;
62102;SDS011;48077;48.104;11.702;2024-01-16T08:45:23;9.48;;;4.22;;
62102;SDS011;48077;48.104;11.702;2024-01-16T08:47:52;5.95;;;5.00;;
62102;SDS011;48077;48.104;11.702;2024-01-16T08:50:20;5.68;;;4.63;;
62102;SDS011;48077;48.104;11.702;2024-01-16T08:52:48;5.70;;;5.20;;
62102;SDS011;48077;48.104;11.702;2024-01-16T08:55:15;9.40;;;4.85;;
62102;SDS011;48077;48.104;11.702;2024-01-16T08:57:43;6.47;;;5.22;;
62102;SDS011;48077;48.104;11.702;2024-01-16T09:00:13;6.20;;;4.13;;
62102;SDS011;48077;48.104;11.702;2024-01-16T09:02:41;7.72;;;5.03;;
62102;SDS011;48077;48.104;11.702;2024-01-16T09:05:09;5.93;;;4.68;;
62102;SDS011;48077;48.104;11.702;2024-01-16T09:07:38;8.57;;;4.72;;
62102;SDS011;48077;48.104;11.702;2024-01-16T09:10:06;6.10;;;5.30;;
62102;SDS011;48077;48.104;11.702;2024-01-16T09:12:35;12.75;;;5.38;;
62102;SDS011;48077;48.104;11.702;2024-01-16T09:15:02;8.43;;;5.38;;
62102;SDS011;48077;48.104;11.702;2024-01-16T09:17:32;7.38;;;5.50;;
62102;SDS011;48077;48.104;11.702;2024-01-16T09:20:00;11.82;;;5.30;;
62102;SDS011;48077;48.104;11.702;2024-01-16T09:22:28;8.27;;;3.88;;
62102;SDS011;48077;48.104;11.702;2024-01-16T09:24:56;10.05;;;5.40;;
62102;SDS011;48077;48.104;11.702;2024-01-16T09:27:23;4.90;;;3.70;;
62102;SDS011;48077;48.104;11.702;2024-01-16T09:29:51;9.15;;;5.40;;
62102;SDS011;48077;48.104;11.702;2024-01-16T09:32:19;5.22;;;4.13;;
62102;SDS011;48077;48.104;11.702;2024-01-16T09:34:48;5.68;;;3.47;;
62102;SDS011;48077;48.104;11.702;2024-01-16T09:37:16;8.82;;;3.90;;
62102;SDS011;48077;48.104;11.702;2024-01-16T09:39:44;5.28;;;4.18;;
62102;SDS011;48077;48.104;11.702;2024-01-16T09:42:12;5.03;;;4.50;;
62102;SDS011;48077;48.104;11.702;2024-01-16T09:44:41;4.10;;;2.88;;
62102;SDS011;48077;48.104;11.702;2024-01-16T09:49:37;6.97;;;4.95;;
62102;SDS011;48077;48.104;11.702;2024-01-16T09:52:07;4.53;;;3.67;;
62102;SDS011;48077;48.104;11.702;2024-01-16T09:54:35;5.63;;;3.90;;
62102;SDS011;48077;48.104;11.702;2024-01-16T09:57:03;4.38;;;3.78;;
62102;SDS011;48077;48.104;11.702;2024-01-16T09:59:34;6.82;;;4.55;;
62102;SDS011;48077;48.104;11.702;2024-01-16T10:02:06;5.65;;;3.75;;
62102;SDS011;48077;48.104;11.702;2024-01-16T10:04:35;4.82;;;4.22;;
62102;SDS011;48077;48.104;11.702;2024-01-16T10:09:33;3.63;;;3.33;;
62102;SDS011;48077;48.104;11.702;2024-01-16T10:12:01;5.82;;;3.22;;
62102;SDS011;48077;48.104;11.702;2024-01-16T10:14:29;4.07;;;3.35;;
62102;SDS011;48077;48.104;11.702;2024-01-16T10:19:29;3.08;;;2.80;;
62102;SDS011;48077;48.104;11.702;2024-01-16T10:22:11;7.65;;;3.42;;
62102;SDS011;48077;48.104;11.702;2024-01-16T10:24:41;4.25;;;3.85;;
62102;SDS011;48077;48.104;11.702;2024-01-16T10:27:09;5.78;;;3.03;;
62102;SDS011;48077;48.104;11.702;2024-01-16T10:29:37;4.80;;;4.28;;
62102;SDS011;48077;48.104;11.702;2024-01-16T10:32:29;5.25;;;3.80;;
62102;SDS011;48077;48.104;11.702;2024-01-16T10:35:04;3.35;;;3.05;;
62102;SDS011;48077;48.104;11.702;2024-01-16T10:37:46;3.67;;;3.30;;
62102;SDS011;48077;48.104;11.702;2024-01-16T10:40:16;7.25;;;3.22;;
62102;SDS011;48077;48.104;11.702;2024-01-16T10:42:56;5.05;;;2.97;;
62102;SDS011;48077;48.104;11.702;2024-01-16T10:45:25;5.32;;;2.88;;
62102;SDS011;48077;48.104;11.702;2024-01-16T10:48:00;4.03;;;3.25;;
62102;SDS011;48077;48.104;11.702;2024-01-16T10:50:28;4.80;;;3.92;;
62102;SDS011;48077;48.104;11.702;2024-01-16T10:52:56;4.82;;;3.75;;
62102;SDS011;48077;48.104;11.702;2024-01-16T10:55:29;5.18;;;4.78;;
62102;SDS011;48077;48.104;11.702;2024-01-16T10:57:57;6.32;;;3.67;;
62102;SDS011;48077;48.104;11.702;2024-01-16T11:00:27;3.78;;;3.30;;
62102;SDS011;48077;48.104;11.702;2024-01-16T11:02:58;3.67;;;3.33;;
62102;SDS011;48077;48.104;11.702;2024-01-16T11:05:28;4.97;;;3.60;;
62102;SDS011;48077;48.104;11.702;2024-01-16T11:08:00;3.22;;;2.50;;
62102;SDS011;48077;48.104;11.702;2024-01-16T11:10:31;3.88;;;3.35;;
62102;SDS011;48077;48.104;11.702;2024-01-16T11:13:00;5.93;;;4.57;;
62102;SDS011;48077;48.104;11.702;2024-01-16T11:15:29;6.10;;;3.05;;
62102;SDS011;48077;48.104;11.702;2024-01-16T11:17:58;3.63;;;3.08;;
62102;SDS011;48077;48.104;11.702;2024-01-16T11:20:27;4.63;;;3.47;;
62102;SDS011;48077;48.104;11.702;2024-01-16T11:23:16;2.67;;;2.47;;
62102;SDS011;48077;48.104;11.702;2024-01-16T11:25:45;3.83;;;2.78;;
62102;SDS011;48077;48.104;11.702;2024-01-16T11:28:14;2.92;;;2.63;;
62102;SDS011;48077;48.104;11.702;2024-01-16T11:30:42;4.78;;;2.63;;
62102;SDS011;48077;48.104;11.702;2024-01-16T11:39:26;4.55;;;2.97;;
62102;SDS011;48077;48.104;11.702;2024-01-16T11:41:55;3.38;;;3.15;;
62102;SDS011;48077;48.104;11.702;2024-01-16T11:44:40;4.25;;;3.83;;
62102;SDS011;48077;48.104;11.702;2024-01-16T11:47:15;3.00;;;2.80;;
62102;SDS011;48077;48.104;11.702;2024-01-16T11:49:44;4.40;;;3.22;;
62102;SDS011;48077;48.104;11.702;2024-01-16T11:52:16;3.72;;;2.65;;
62102;SDS011;48077;48.104;11.702;2024-01-16T11:57:59;2.45;;;2.05;;
62102;SDS011;48077;48.104;11.702;2024-01-16T12:00:41;3.20;;;2.55;;
62102;SDS011;48077;48.104;11.702;2024-01-16T12:03:13;3.58;;;3.10;;
62102;SDS011;48077;48.104;11.702;2024-01-16T12:05:57;3.13;;;2.92;;
62102;SDS011;48077;48.104;11.702;2024-01-16T12:08:25;2.88;;;2.45;;
62102;SDS011;48077;48.104;11.702;2024-01-16T12:10:54;2.80;;;2.25;;
62102;SDS011;48077;48.104;11.702;2024-01-16T12:13:24;1.95;;;1.85;;
62102;SDS011;48077;48.104;11.702;2024-01-16T12:16:01;2.45;;;2.25;;
62102;SDS011;48077;48.104;11.702;2024-01-16T12:18:31;1.88;;;1.77;;
62102;SDS011;48077;48.104;11.702;2024-01-16T12:21:09;2.28;;;2.08;;
62102;SDS011;48077;48.104;11.702;2024-01-16T12:23:39;2.25;;;2.15;;
62102;SDS011;48077;48.104;11.702;2024-01-16T12:26:21;3.05;;;2.85;;
62102;SDS011;48077;48.104;11.702;2024-01-16T12:28:51;2.83;;;2.63;;
62102;SDS011;48077;48.104;11.702;2024-01-16T12:31:25;3.22;;;2.92;;
62102;SDS011;48077;48.104;11.702;2024-01-16T12:33:54;2.63;;;2.42;;
62102;SDS011;48077;48.104;11.702;2024-01-16T12:36:31;3.00;;;2.78;;
62102;SDS011;48077;48.104;11.702;2024-01-16T12:38:59;2.50;;;2.30;;
62102;SDS011;48077;48.104;11.702;2024-01-16T12:41:27;4.03;;;2.45;;
62102;SDS011;48077;48.104;11.702;2024-01-16T12:44:09;3.38;;;2.40;;
62102;SDS011;48077;48.104;11.702;2024-01-16T12:46:43;2.90;;;2.70;;
62102;SDS011;48077;48.104;11.702;2024-01-16T12:49:11;3.33;;;1.73;;
62102;SDS011;48077;48.104;11.702;2024-01-16T12:51:39;2.95;;;2.50;;
62102;SDS011;48077;48.104;11.702;2024-01-16T12:54:11;2.30;;;2.05;;
62102;SDS011;48077;48.104;11.702;2024-01-16T12:56:40;2.65;;;2.42;;
62102;SDS011;48077;48.104;11.702;2024-01-16T12:59:12;3.40;;;3.10;;
62102;SDS011;48077;48.104;11.702;2024-01-16T13:01:41;3.50;;;3.17;;
62102;SDS011;48077;48.104;11.702;2024-01-16T13:04:10;4.15;;;3.85;;
62102;SDS011;48077;48.104;11.702;2024-01-16T13:09:10;2.60;;;1.67;;
62102;SDS011;48077;48.104;11.702;2024-01-16T13:11:47;3.28;;;2.97;;
62102;SDS011;48077;48.104;11.702;2024-01-16T13:14:17;4.88;;;2.33;;
62102;SDS011;48077;48.104;11.702;2024-01-16T13:16:47;3.22;;;2.78;;
62102;SDS011;48077;48.104;11.702;2024-01-16T13:21:43;4.50;;;3.88;;
62102;SDS011;48077;48.104;11.702;2024-01-16T13:24:11;3.50;;;2.75;;
62102;SDS011;48077;48.104;11.702;2024-01-16T13:26:40;3.95;;;2.63;;
62102;SDS011;48077;48.104;11.702;2024-01-16T13:29:09;3.72;;;3.13;;
62102;SDS011;48077;48.104;11.702;2024-01-16T13:31:39;4.25;;;2.85;;
62102;SDS011;48077;48.104;11.702;2024-01-16T13:34:07;2.90;;;2.70;;
62102;SDS011;48077;48.104;11.702;2024-01-16T13:36:35;3.35;;;2.80;;
62102;SDS011;48077;48.104;11.702;2024-01-16T13:39:06;3.20;;;2.83;;
62102;SDS011;48077;48.104;11.702;2024-01-16T13:41:39;3.10;;;2.58;;
62102;SDS011;48077;48.104;11.702;2024-01-16T13:44:07;2.72;;;2.53;;
62102;SDS011;48077;48.104;11.702;2024-01-16T13:46:35;3.05;;;2.80;;
62102;SDS011;48077;48.104;11.702;2024-01-16T13:49:08;2.85;;;2.50;;
62102;SDS011;48077;48.104;11.702;2024-01-16T13:51:36;4.35;;;2.65;;
62102;SDS011;48077;48.104;11.702;2024-01-16T13:54:04;3.53;;;2.17;;
62102;SDS011;48077;48.104;11.702;2024-01-16T13:56:31;3.58;;;3.30;;
62102;SDS011;48077;48.104;11.702;2024-01-16T13:59:19;4.30;;;2.60;;
62102;SDS011;48077;48.104;11.702;2024-01-16T14:01:47;4.55;;;1.42;;
62102;SDS011;48077;48.104;11.702;2024-01-16T14:04:16;1.80;;;1.70;;
62102;SDS011;48077;48.104;11.702;2024-01-16T14:06:44;4.07;;;3.38;;
62102;SDS011;48077;48.104;11.702;2024-01-16T14:09:32;4.40;;;4.10;;
62102;SDS011;48077;48.104;11.702;2024-01-16T14:12:01;3.38;;;3.03;;
62102;SDS011;48077;48.104;11.702;2024-01-16T14:14:28;5.25;;;2.63;;
62102;SDS011;48077;48.104;11.702;2024-01-16T14:16:57;3.78;;;3.47;;
62102;SDS011;48077;48.104;11.702;2024-01-16T14:19:28;3.65;;;3.35;;
62102;SDS011;48077;48.104;11.702;2024-01-16T14:21:57;5.47;;;3.90;;
62102;SDS011;48077;48.104;11.702;2024-01-16T14:24:25;8.18;;;3.33;;
62102;SDS011;48077;48.104;11.702;2024-01-16T14:26:53;4.22;;;3.75;;
62102;SDS011;48077;48.104;11.702;2024-01-16T14:29:23;5.53;;;3.60;;
62102;SDS011;48077;48.104;11.702;2024-01-16T14:31:51;6.50;;;5.07;;
62102;SDS011;48077;48.104;11.702;2024-01-16T14:36:48;4.38;;;3.88;;
62102;SDS011;48077;48.104;11.702;2024-01-16T14:39:16;6.22;;;3.25;;
62102;SDS011;48077;48.104;11.702;2024-01-16T14:41:51;3.28;;;2.97;;
62102;SDS011;48077;48.104;11.702;2024-01-16T14:44:19;3.58;;;3.13;;
62102;SDS011;48077;48.104;11.702;2024-01-16T14:46:47;5.50;;;3.75;;
62102;SDS011;48077;48.104;11.702;2024-01-16T14:49:18;7.43;;;5.45;;
62102;SDS011;48077;48.104;11.702;2024-01-16T14:51:49;5.32;;;3.65;;
62102;SDS011;48077;48.104;11.702;2024-01-16T14:54:18;6.00;;;3.47;;
62102;SDS011;48077;48.104;11.702;2024-01-16T14:56:45;3.00;;;2.50;;
62102;SDS011;48077;48.104;11.702;2024-01-16T14:59:14;5.03;;;3.55;;
62102;SDS011;48077;48.104;11.702;2024-01-16T15:01:42;4.72;;;3.40;;
62102;SDS011;48077;48.104;11.702;2024-01-16T15:04:11;5.43;;;3.33;;
62102;SDS011;48077;48.104;11.702;2024-01-16T15:06:39;5.10;;;3.35;;
62102;SDS011;48077;48.104;11.702;2024-01-16T15:09:09;4.32;;;3.00;;
62102;SDS011;48077;48.104;11.702;2024-01-16T15:11:39;5.50;;;2.85;;
62102;SDS011;48077;48.104;11.702;2024-01-16T15:14:07;3.28;;;2.95;;
62102;SDS011;48077;48.104;11.702;2024-01-16T15:16:33;3.15;;;2.63;;
62102;SDS011;48077;48.104;11.702;2024-01-16T15:19:01;5.00;;;3.00;;
62102;SDS011;48077;48.104;11.702;2024-01-16T15:23:57;5.20;;;4.50;;
62102;SDS011;48077;48.104;11.702;2024-01-16T15:26:27;4.53;;;2.97;;
62102;SDS011;48077;48.104;11.702;2024-01-16T15:28:53;5.43;;;3.47;;
62102;SDS011;48077;48.104;11.702;2024-01-16T15:31:21;4.25;;;3.50;;
62102;SDS011;48077;48.104;11.702;2024-01-16T15:33:49;5.15;;;3.70;;
62102;SDS011;48077;48.104;11.702;2024-01-16T15:36:18;5.30;;;3.83;;